Main page
METAR-TAF:

METAR-TAF

Airports :

Oslo Airport. Gardermoen

Oslo, Norway

latitude: 60-12N, longitude: 011-05E, elevation: 208 m

Current weather observation

The report was made 14 minutes ago, at 12:20 UTC
Wind 13 kt from the South/Southwest, varying between South and Southwest
Temperature 22°C
Humidity 60%
Pressure 1023 hPa
Visibility 10 km or more
Few clouds at a height of 3300 ft
Scattered clouds at a height of 23000 ft

METAR: ENGM 251220Z 20013KT 170V230 9999 FEW033 SCT230 22/14 Q1023 NOSIG

Time: 14:34 (12:34 UTC)

Forecast

Forecast valid from 25 at 12 UTC to 26 at 12 UTC
Wind 10 kt from the South/Southwest
Visibility 10 km or more
Few clouds at a height of 3000 ft
Scattered clouds at a height of 18000 ft
Probability 40%
from 25 at 22 UTC to 26 at 08 UTC
Visibility: 0500 m
at a height of 100 ft
fog

TAF: ENGM 2512/2612 20010KT 9999 FEW030 SCT180 PROB40 2522/2608 0500 FG VV001

Weather observations and forecasts of more than 4000 airports (METAR and TAF reports).

The available stations are represented by yellow and red dots on the map.

Hover mouse over dot to see the name of the station.

Then click to see weather observations and forecasts.

To change the map : click on the green buttons with a black cross to zoom in, on the green button with a dash to zoom out, or on the green arrows for adjacent maps.


METAR-TAF: